»·PEaware :: N7CM KSFO-KRNO

N7CM :: KSFO-KRNO

FLIGHT INFORMATION

Flight Status: Arrived
Operator: Privately registered:
United States
More flights under this callsign
Pilot: Carlos D. (29349)
Aircraft: CESSNA 550 CITATION 2/S2/BRAVO
(C550)
More flights by this aircraft type
Origin: KSFO San Francisco Intl
United States
Destination: KRNO Reno/Tahoe Intl
United States
More flights between these airports :: More routes between these airports
Route: +TRUKN2 ORRCA SPOON
File this flight plan on PilotEdge
Remarks:
Altitude:
(Current/Filed)
27,000ft
Speed:
(Current/Filed)
275kts
Departed: 06-Nov-20 02:45 PM
Arrived: 06-Nov-20 03:28 PM
Distance/Time
Traveled:
167nm/0:43
Distance/Time
To Go:
Arrived

Flight Plot

Page will automatically refresh every two minutes.

Flight plan parsing failed; only flown route is shown


Map Options




Map Legend


Flown Route
Filed Route
Departure Airport
Arrival Airport
Navaid (VOR, NDB)
Fix

Horizontal Profiles

Position Reports

Time Latitude Longitude Heading Altitude Ground
Speed
06-Nov-20 14:25 37.626895 -122.383299 145 14ft 0kts
06-Nov-20 14:26 37.626895 -122.383299 145 14ft 0kts
06-Nov-20 14:27 37.626681 -122.383113 147 15ft 4kts
06-Nov-20 14:28 37.625649 -122.382333 118 19ft 3kts
06-Nov-20 14:29 37.624871 -122.380472 117 22ft 8kts
06-Nov-20 14:30 37.623870 -122.378099 119 20ft 6kts
06-Nov-20 14:31 37.623161 -122.376404 118 18ft 5kts
06-Nov-20 14:32 37.622202 -122.374094 120 13ft 10kts
06-Nov-20 14:33 37.621029 -122.371312 118 11ft 9kts
06-Nov-20 14:34 37.619731 -122.368231 118 8ft 10kts
06-Nov-20 14:35 37.617900 -122.363861 118 7ft 12kts
06-Nov-20 14:36 37.616797 -122.361232 118 6ft 7kts
06-Nov-20 14:37 37.615390 -122.357878 118 5ft 7kts
06-Nov-20 14:38 37.614926 -122.356912 141 5ft 0kts
06-Nov-20 14:39 37.614926 -122.356912 141 5ft 0kts
06-Nov-20 14:40 37.614926 -122.356912 141 5ft 0kts
06-Nov-20 14:41 37.614926 -122.356912 141 5ft 0kts
06-Nov-20 14:42 37.614775 -122.356803 156 5ft 1kts
06-Nov-20 14:43 37.614213 -122.356909 212 5ft 6kts
06-Nov-20 14:44 37.617198 -122.365555 293 128ft 126kts
06-Nov-20 14:45 37.651816 -122.369913 68 3362ft 202kts
06-Nov-20 14:46 37.676462 -122.301789 56 5596ft 209kts
06-Nov-20 14:47 37.706804 -122.237426 56 7621ft 214kts
06-Nov-20 14:48 37.748820 -122.186365 31 9644ft 213kts
06-Nov-20 14:49 37.796907 -122.142968 32 11502ft 219kts
06-Nov-20 14:50 37.848721 -122.096000 31 13233ft 227kts
06-Nov-20 14:51 37.904071 -122.045829 30 14831ft 236kts
06-Nov-20 14:52 37.959622 -121.995380 29 16233ft 244kts
06-Nov-20 14:53 38.018522 -121.941780 29 17566ft 259kts
06-Nov-20 14:54 38.080889 -121.884871 28 20107ft 271kts
06-Nov-20 14:55 38.147298 -121.824246 28 22248ft 288kts
06-Nov-20 14:56 38.218326 -121.759187 29 24174ft 305kts
06-Nov-20 14:57 38.291577 -121.691999 29 25491ft 334kts
06-Nov-20 14:58 38.372942 -121.616999 30 26614ft 355kts
06-Nov-20 14:59 38.457062 -121.532837 38 26816ft 398kts
06-Nov-20 15:00 38.540366 -121.428490 41 26823ft 423kts
06-Nov-20 15:01 38.602160 -121.349382 42 26818ft 431kts
06-Nov-20 15:02 38.674705 -121.256423 42 26803ft 435kts
06-Nov-20 15:03 38.750169 -121.159520 43 26807ft 437kts
06-Nov-20 15:04 38.830172 -121.056542 46 26807ft 444kts
06-Nov-20 15:05 38.911493 -120.951427 49 26807ft 450kts
06-Nov-20 15:07 38.985874 -120.854169 48 26810ft 450kts
06-Nov-20 15:08 39.046728 -120.775228 49 26816ft 367kts
06-Nov-20 15:09 39.072701 -120.707000 105 25993ft 284kts
06-Nov-20 15:10 39.072220 -120.635066 99 24366ft 287kts
06-Nov-20 15:11 39.074824 -120.567469 98 22965ft 281kts
06-Nov-20 15:12 39.077647 -120.502888 97 21647ft 273kts
06-Nov-20 15:13 39.080531 -120.435965 97 20204ft 268kts
06-Nov-20 15:14 39.083235 -120.372759 96 18867ft 261kts
06-Nov-20 15:15 39.087543 -120.269947 96 16633ft 251kts
06-Nov-20 15:16 39.092068 -120.159013 95 14506ft 246kts
06-Nov-20 15:17 39.096857 -120.041446 95 13527ft 237kts
06-Nov-20 15:18 39.100858 -119.940588 95 13146ft 217kts
06-Nov-20 15:19 39.104497 -119.843301 94 12087ft 234kts
06-Nov-20 15:20 39.149692 -119.779838 343 11225ft 235kts
06-Nov-20 15:21 39.219903 -119.785135 358 11248ft 214kts
06-Nov-20 15:22 39.291842 -119.776193 5 11223ft 203kts
06-Nov-20 15:23 39.350415 -119.756018 10 10579ft 192kts
06-Nov-20 15:24 39.407973 -119.738046 358 8940ft 187kts
06-Nov-20 15:24 39.443213 -119.736852 326 7730ft 113kts
06-Nov-20 15:26 39.469134 -119.764456 336 5594ft 127kts
06-Nov-20 15:26 39.497233 -119.766650 351 4440ft 91kts
06-Nov-20 15:28 39.507144 -119.766797 2 4420ft 22kts
06-Nov-20 15:28 39.510977 -119.765711 89 4420ft 0kts

Navigation Log

Ident Type
Flight plan parsing failed, navigation log unavailable